Bentonia, Mississippi
Current Conditions -  °F | °C
As of 9:53 PM on Saturday 24 Jan 2015 (Local Time) from KHKS Reporting Station
Clear Clear  
Wind Chill: 40°   Ceiling: Unl
Heat Index: 43°   Visibility: 10mi
Dew Point: 33°   Wind: 5mph
Humidity: 68%   Direction: 210°SSW
Pressure: 30.02"   Gusts: NA
Location:  32.64°N, 90.36°W
Report Text: KHKS 250353Z AUTO 21004KT 10SM CLR 06/01 A3002 RMK AO2 SLP163 T00610006
Loading
Personal Weather Stations






























Interactive Weather Map New forecast layout! Learn more

10-Day Weather Forecast

Advertisements
Track Severe Weather on mobile